sensor_id;sensor_type;location;lat;lon;timestamp;pressure;altitude;pressure_sealevel;temperature;humidity
49341;BME280;35209;51.050;13.678;2023-02-22T00:01:48;100019.16;;;9.02;83.33
49341;BME280;35209;51.050;13.678;2023-02-22T00:07:10;100020.00;;;9.04;83.09
49341;BME280;35209;51.050;13.678;2023-02-22T00:12:12;100011.34;;;9.33;81.44
49341;BME280;35209;51.050;13.678;2023-02-22T00:17:14;100018.47;;;8.95;83.59
49341;BME280;35209;51.050;13.678;2023-02-22T00:22:16;100013.03;;;8.67;85.19
49341;BME280;35209;51.050;13.678;2023-02-22T00:27:19;100009.94;;;8.51;86.11
49341;BME280;35209;51.050;13.678;2023-02-22T00:32:23;100006.84;;;8.32;87.38
49341;BME280;35209;51.050;13.678;2023-02-22T00:37:26;100006.69;;;8.40;87.20
49341;BME280;35209;51.050;13.678;2023-02-22T00:42:32;100004.97;;;8.39;87.57
49341;BME280;35209;51.050;13.678;2023-02-22T00:47:34;100010.91;;;8.05;88.64
49341;BME280;35209;51.050;13.678;2023-02-22T00:52:36;100002.59;;;7.88;89.83
49341;BME280;35209;51.050;13.678;2023-02-22T00:57:38;100005.13;;;7.91;90.14
49341;BME280;35209;51.050;13.678;2023-02-22T01:02:42;100007.13;;;7.80;90.77
49341;BME280;35209;51.050;13.678;2023-02-22T01:07:47;100000.13;;;7.80;91.73
49341;BME280;35209;51.050;13.678;2023-02-22T01:12:50;100010.88;;;7.67;93.03
49341;BME280;35209;51.050;13.678;2023-02-22T01:17:52;100007.50;;;7.62;93.75
49341;BME280;35209;51.050;13.678;2023-02-22T01:22:56;100003.19;;;7.59;94.39
49341;BME280;35209;51.050;13.678;2023-02-22T01:28:00;100003.66;;;7.78;93.49
49341;BME280;35209;51.050;13.678;2023-02-22T01:33:04;100001.03;;;8.20;90.38
49341;BME280;35209;51.050;13.678;2023-02-22T01:38:08;99998.66;;;8.48;88.26
49341;BME280;35209;51.050;13.678;2023-02-22T01:43:28;99995.69;;;8.62;86.94
49341;BME280;35209;51.050;13.678;2023-02-22T01:48:35;99989.09;;;8.47;88.03
49341;BME280;35209;51.050;13.678;2023-02-22T01:58:58;99982.59;;;8.23;89.87
49341;BME280;35209;51.050;13.678;2023-02-22T02:04:06;99996.59;;;8.22;90.27
49341;BME280;35209;51.050;13.678;2023-02-22T02:09:52;99983.97;;;8.41;88.37
49341;BME280;35209;51.050;13.678;2023-02-22T02:14:45;99981.44;;;8.36;88.38
49341;BME280;35209;51.050;13.678;2023-02-22T02:20:06;99983.75;;;8.50;88.24
49341;BME280;35209;51.050;13.678;2023-02-22T02:41:30;99957.81;;;8.00;91.94
49341;BME280;35209;51.050;13.678;2023-02-22T02:46:54;99959.63;;;7.98;92.52
49341;BME280;35209;51.050;13.678;2023-02-22T02:51:57;99959.78;;;7.91;93.71
49341;BME280;35209;51.050;13.678;2023-02-22T02:57:01;99961.59;;;7.87;93.73
49341;BME280;35209;51.050;13.678;2023-02-22T03:08:04;99959.06;;;7.84;94.29
49341;BME280;35209;51.050;13.678;2023-02-22T03:28:48;99942.53;;;7.82;95.00
49341;BME280;35209;51.050;13.678;2023-02-22T03:34:00;99940.53;;;7.93;94.46
49341;BME280;35209;51.050;13.678;2023-02-22T03:39:08;99946.75;;;7.88;94.68
49341;BME280;35209;51.050;13.678;2023-02-22T03:44:14;99945.84;;;7.90;94.95
49341;BME280;35209;51.050;13.678;2023-02-22T03:50:02;99937.16;;;7.88;94.87
49341;BME280;35209;51.050;13.678;2023-02-22T03:54:43;99929.38;;;7.85;94.87
49341;BME280;35209;51.050;13.678;2023-02-22T03:59:45;99940.66;;;7.87;94.73
49341;BME280;35209;51.050;13.678;2023-02-22T04:04:47;99940.66;;;7.87;94.54
49341;BME280;35209;51.050;13.678;2023-02-22T04:09:49;99934.50;;;7.49;95.87
49341;BME280;35209;51.050;13.678;2023-02-22T04:14:52;99934.41;;;7.11;98.20
49341;BME280;35209;51.050;13.678;2023-02-22T04:19:54;99929.91;;;7.19;97.84
49341;BME280;35209;51.050;13.678;2023-02-22T04:24:57;99928.84;;;6.81;99.14
49341;BME280;35209;51.050;13.678;2023-02-22T04:30:00;99929.88;;;6.74;100.00
49341;BME280;35209;51.050;13.678;2023-02-22T04:35:05;99929.50;;;6.94;100.00
49341;BME280;35209;51.050;13.678;2023-02-22T04:40:09;99931.63;;;7.20;98.96
49341;BME280;35209;51.050;13.678;2023-02-22T04:45:12;99927.19;;;7.23;98.83
49341;BME280;35209;51.050;13.678;2023-02-22T04:50:15;99925.97;;;6.95;100.00
49341;BME280;35209;51.050;13.678;2023-02-22T04:55:17;99931.06;;;7.02;100.00
49341;BME280;35209;51.050;13.678;2023-02-22T05:00:19;99930.00;;;7.14;100.00
49341;BME280;35209;51.050;13.678;2023-02-22T05:05:22;99922.97;;;7.16;100.00
49341;BME280;35209;51.050;13.678;2023-02-22T05:10:24;99928.28;;;7.12;100.00
49341;BME280;35209;51.050;13.678;2023-02-22T05:15:26;99929.13;;;7.12;100.00
49341;BME280;35209;51.050;13.678;2023-02-22T05:20:32;99927.44;;;7.11;100.00
49341;BME280;35209;51.050;13.678;2023-02-22T05:25:34;99925.63;;;7.15;100.00
49341;BME280;35209;51.050;13.678;2023-02-22T05:30:37;99925.56;;;7.16;100.00
49341;BME280;35209;51.050;13.678;2023-02-22T05:35:40;99930.00;;;7.14;100.00
49341;BME280;35209;51.050;13.678;2023-02-22T05:40:42;99923.03;;;7.13;100.00
49341;BME280;35209;51.050;13.678;2023-02-22T05:45:44;99918.50;;;7.21;100.00
49341;BME280;35209;51.050;13.678;2023-02-22T05:50:46;99935.84;;;7.25;100.00
49341;BME280;35209;51.050;13.678;2023-02-22T05:55:50;99931.06;;;7.47;100.00
49341;BME280;35209;51.050;13.678;2023-02-22T06:00:52;99933.75;;;7.43;100.00
49341;BME280;35209;51.050;13.678;2023-02-22T06:05:54;99929.34;;;7.46;100.00
49341;BME280;35209;51.050;13.678;2023-02-22T06:10:56;99932.75;;;7.50;100.00
49341;BME280;35209;51.050;13.678;2023-02-22T06:15:57;99939.69;;;7.51;100.00
49341;BME280;35209;51.050;13.678;2023-02-22T06:20:59;99934.59;;;7.45;100.00
49341;BME280;35209;51.050;13.678;2023-02-22T06:26:02;99937.00;;;7.55;100.00
49341;BME280;35209;51.050;13.678;2023-02-22T06:31:04;99937.00;;;7.55;100.00
49341;BME280;35209;51.050;13.678;2023-02-22T06:36:06;99939.69;;;7.51;100.00
49341;BME280;35209;51.050;13.678;2023-02-22T06:41:08;99945.78;;;7.51;100.00
49341;BME280;35209;51.050;13.678;2023-02-22T06:46:11;99945.53;;;7.64;100.00
49341;BME280;35209;51.050;13.678;2023-02-22T06:51:13;99940.16;;;7.71;100.00
49341;BME280;35209;51.050;13.678;2023-02-22T06:56:15;99941.22;;;7.61;100.00
49341;BME280;35209;51.050;13.678;2023-02-22T07:01:16;99956.16;;;7.56;100.00
49341;BME280;35209;51.050;13.678;2023-02-22T07:06:19;99957.38;;;7.81;100.00
49341;BME280;35209;51.050;13.678;2023-02-22T07:11:21;99965.25;;;7.80;100.00
49341;BME280;35209;51.050;13.678;2023-02-22T07:16:23;99959.94;;;7.84;100.00
49341;BME280;35209;51.050;13.678;2023-02-22T07:21:25;99964.31;;;7.84;99.28
49341;BME280;35209;51.050;13.678;2023-02-22T07:26:27;99970.31;;;7.88;99.35
49341;BME280;35209;51.050;13.678;2023-02-22T07:31:34;99971.22;;;7.87;100.00
49341;BME280;35209;51.050;13.678;2023-02-22T07:36:36;99978.28;;;8.22;98.72
49341;BME280;35209;51.050;13.678;2023-02-22T07:41:37;99973.44;;;8.44;96.71
49341;BME280;35209;51.050;13.678;2023-02-22T07:46:48;99971.59;;;8.83;92.53
49341;BME280;35209;51.050;13.678;2023-02-22T07:51:50;99971.34;;;8.92;90.55
49341;BME280;35209;51.050;13.678;2023-02-22T07:56:52;99976.34;;;8.67;91.21
49341;BME280;35209;51.050;13.678;2023-02-22T08:01:54;99969.03;;;8.46;94.29
49341;BME280;35209;51.050;13.678;2023-02-22T08:06:56;99963.53;;;8.91;89.86
49341;BME280;35209;51.050;13.678;2023-02-22T08:11:57;99962.06;;;9.12;86.92
49341;BME280;35209;51.050;13.678;2023-02-22T08:16:59;99962.47;;;8.64;90.10
49341;BME280;35209;51.050;13.678;2023-02-22T08:22:01;99961.47;;;9.02;87.64
49341;BME280;35209;51.050;13.678;2023-02-22T08:27:02;99962.47;;;9.29;85.87
49341;BME280;35209;51.050;13.678;2023-02-22T08:32:04;99966.63;;;9.38;85.08
49341;BME280;35209;51.050;13.678;2023-02-22T08:37:07;99966.63;;;9.38;85.00
49341;BME280;35209;51.050;13.678;2023-02-22T08:42:09;99967.09;;;9.52;84.49
49341;BME280;35209;51.050;13.678;2023-02-22T08:47:10;99963.44;;;9.57;83.52
49341;BME280;35209;51.050;13.678;2023-02-22T08:52:12;99961.41;;;9.67;84.17
49341;BME280;35209;51.050;13.678;2023-02-22T08:57:14;99952.47;;;9.74;84.37
49341;BME280;35209;51.050;13.678;2023-02-22T09:02:18;99959.78;;;10.21;82.67
49341;BME280;35209;51.050;13.678;2023-02-22T09:07:21;99958.66;;;10.00;85.10
49341;BME280;35209;51.050;13.678;2023-02-22T09:12:22;99960.50;;;9.98;82.47
49341;BME280;35209;51.050;13.678;2023-02-22T09:17:24;99960.63;;;9.93;83.97
49341;BME280;35209;51.050;13.678;2023-02-22T09:22:25;99956.34;;;10.19;81.83
49341;BME280;35209;51.050;13.678;2023-02-22T09:27:27;99958.38;;;10.39;80.55
49341;BME280;35209;51.050;13.678;2023-02-22T09:32:29;99952.34;;;10.61;78.81
49341;BME280;35209;51.050;13.678;2023-02-22T09:37:31;99945.69;;;10.51;79.23
49341;BME280;35209;51.050;13.678;2023-02-22T09:42:47;99934.81;;;10.62;79.27
49341;BME280;35209;51.050;13.678;2023-02-22T09:47:57;99927.06;;;11.09;76.47
49341;BME280;35209;51.050;13.678;2023-02-22T09:53:25;99929.63;;;11.10;74.25
49341;BME280;35209;51.050;13.678;2023-02-22T09:58:34;99921.47;;;11.18;74.34
49341;BME280;35209;51.050;13.678;2023-02-22T10:08:53;99921.31;;;11.70;69.64
49341;BME280;35209;51.050;13.678;2023-02-22T10:29:37;99913.75;;;11.14;72.77
49341;BME280;35209;51.050;13.678;2023-02-22T10:34:45;99912.16;;;11.33;72.69
49341;BME280;35209;51.050;13.678;2023-02-22T10:39:50;99907.97;;;11.51;71.30
49341;BME280;35209;51.050;13.678;2023-02-22T10:44:54;99911.75;;;11.67;70.63
49341;BME280;35209;51.050;13.678;2023-02-22T10:49:57;99891.66;;;11.41;72.48
49341;BME280;35209;51.050;13.678;2023-02-22T10:55:02;99891.81;;;11.38;72.28
49341;BME280;35209;51.050;13.678;2023-02-22T11:00:20;99886.94;;;11.73;71.35
49341;BME280;35209;51.050;13.678;2023-02-22T11:05:36;99880.22;;;11.89;67.51
49341;BME280;35209;51.050;13.678;2023-02-22T11:10:38;99879.06;;;11.73;68.66
49341;BME280;35209;51.050;13.678;2023-02-22T11:15:40;99876.19;;;11.79;69.30
49341;BME280;35209;51.050;13.678;2023-02-22T11:20:41;99877.84;;;11.81;68.45
49341;BME280;35209;51.050;13.678;2023-02-22T11:25:43;99880.28;;;12.09;64.23
49341;BME280;35209;51.050;13.678;2023-02-22T11:30:48;99866.44;;;12.04;66.13
49341;BME280;35209;51.050;13.678;2023-02-22T11:36:00;99863.84;;;12.03;66.84
49341;BME280;35209;51.050;13.678;2023-02-22T11:46:21;99847.34;;;12.20;64.15
49341;BME280;35209;51.050;13.678;2023-02-22T11:51:31;99846.69;;;12.15;64.14
49341;BME280;35209;51.050;13.678;2023-02-22T11:56:41;99842.38;;;11.92;65.44
49341;BME280;35209;51.050;13.678;2023-02-22T12:01:57;99845.38;;;12.25;62.65
49341;BME280;35209;51.050;13.678;2023-02-22T12:07:24;99835.09;;;12.19;62.04
49341;BME280;35209;51.050;13.678;2023-02-22T12:28:25;99827.50;;;11.67;64.82
49341;BME280;35209;51.050;13.678;2023-02-22T12:33:41;99825.16;;;11.81;64.80
49341;BME280;35209;51.050;13.678;2023-02-22T12:38:49;99828.38;;;12.11;62.74
49341;BME280;35209;51.050;13.678;2023-02-22T12:44:17;99825.44;;;12.40;60.44
49341;BME280;35209;51.050;13.678;2023-02-22T12:49:44;99821.66;;;12.04;63.42
49341;BME280;35209;51.050;13.678;2023-02-22T12:59:58;99808.13;;;12.12;62.46
49341;BME280;35209;51.050;13.678;2023-02-22T13:05:02;99809.00;;;12.12;61.92
49341;BME280;35209;51.050;13.678;2023-02-22T13:15:29;99806.38;;;11.91;62.62
49341;BME280;35209;51.050;13.678;2023-02-22T13:20:44;99807.25;;;12.13;61.67
49341;BME280;35209;51.050;13.678;2023-02-22T13:26:10;99808.44;;;12.47;61.37
49341;BME280;35209;51.050;13.678;2023-02-22T13:31:57;99807.59;;;12.67;60.77
49341;BME280;35209;51.050;13.678;2023-02-22T13:42:33;99807.03;;;12.38;60.78
49341;BME280;35209;51.050;13.678;2023-02-22T13:53:06;99798.41;;;12.34;61.92
49341;BME280;35209;51.050;13.678;2023-02-22T13:58:11;99797.75;;;12.50;60.13
49341;BME280;35209;51.050;13.678;2023-02-22T14:13:22;99800.97;;;12.16;62.17
49341;BME280;35209;51.050;13.678;2023-02-22T14:18:26;99793.19;;;11.92;63.11
49341;BME280;35209;51.050;13.678;2023-02-22T14:23:37;99788.66;;;12.16;61.72
49341;BME280;35209;51.050;13.678;2023-02-22T14:39:15;99771.09;;;11.95;63.76
49341;BME280;35209;51.050;13.678;2023-02-22T14:44:29;99774.75;;;12.12;62.41
49341;BME280;35209;51.050;13.678;2023-02-22T14:49:37;99771.25;;;12.12;61.76
49341;BME280;35209;51.050;13.678;2023-02-22T14:55:03;99761.09;;;12.03;62.93
49341;BME280;35209;51.050;13.678;2023-02-22T15:05:20;99754.91;;;11.82;63.76
49341;BME280;35209;51.050;13.678;2023-02-22T15:15:25;99754.41;;;11.96;63.03
49341;BME280;35209;51.050;13.678;2023-02-22T15:20:28;99746.53;;;11.72;64.82
49341;BME280;35209;51.050;13.678;2023-02-22T15:25:30;99751.22;;;11.88;63.61
49341;BME280;35209;51.050;13.678;2023-02-22T15:30:32;99744.31;;;12.05;63.30
49341;BME280;35209;51.050;13.678;2023-02-22T15:35:35;99738.91;;;11.88;64.74
49341;BME280;35209;51.050;13.678;2023-02-22T15:40:38;99742.75;;;11.57;71.52
49341;BME280;35209;51.050;13.678;2023-02-22T15:45:44;99739.66;;;11.26;75.18
49341;BME280;35209;51.050;13.678;2023-02-22T15:51:05;99741.66;;;11.19;76.93
49341;BME280;35209;51.050;13.678;2023-02-22T15:56:13;99735.47;;;10.98;78.25
49341;BME280;35209;51.050;13.678;2023-02-22T16:01:16;99732.66;;;10.79;79.07
49341;BME280;35209;51.050;13.678;2023-02-22T16:06:26;99732.38;;;10.87;79.69
49341;BME280;35209;51.050;13.678;2023-02-22T16:11:33;99735.78;;;10.66;81.38
49341;BME280;35209;51.050;13.678;2023-02-22T16:16:36;99729.09;;;10.57;81.35
49341;BME280;35209;51.050;13.678;2023-02-22T16:21:52;99734.34;;;10.57;82.77
49341;BME280;35209;51.050;13.678;2023-02-22T16:32:25;99739.94;;;10.23;84.92
49341;BME280;35209;51.050;13.678;2023-02-22T16:37:35;99735.84;;;9.89;86.88
49341;BME280;35209;51.050;13.678;2023-02-22T16:42:37;99739.41;;;9.86;88.46
49341;BME280;35209;51.050;13.678;2023-02-22T16:47:38;99739.47;;;9.58;89.89
49341;BME280;35209;51.050;13.678;2023-02-22T16:52:40;99740.91;;;9.41;91.07
49341;BME280;35209;51.050;13.678;2023-02-22T16:57:42;99741.06;;;9.36;91.30
49341;BME280;35209;51.050;13.678;2023-02-22T17:02:44;99738.78;;;9.25;91.89
49341;BME280;35209;51.050;13.678;2023-02-22T17:07:45;99739.06;;;9.16;92.70
49341;BME280;35209;51.050;13.678;2023-02-22T17:12:50;99738.75;;;9.27;93.52
49341;BME280;35209;51.050;13.678;2023-02-22T17:17:54;99744.19;;;9.47;91.79
49341;BME280;35209;51.050;13.678;2023-02-22T17:22:59;99743.28;;;9.22;94.24
49341;BME280;35209;51.050;13.678;2023-02-22T17:28:01;99736.63;;;9.10;94.16
49341;BME280;35209;51.050;13.678;2023-02-22T17:33:04;99741.81;;;9.12;94.29
49341;BME280;35209;51.050;13.678;2023-02-22T17:38:06;99738.47;;;9.06;94.77
49341;BME280;35209;51.050;13.678;2023-02-22T17:43:08;99739.44;;;8.74;95.51
49341;BME280;35209;51.050;13.678;2023-02-22T17:48:10;99743.53;;;8.53;96.96
49341;BME280;35209;51.050;13.678;2023-02-22T17:53:12;99736.31;;;8.62;97.38
49341;BME280;35209;51.050;13.678;2023-02-22T17:58:14;99734.88;;;8.81;95.05
49341;BME280;35209;51.050;13.678;2023-02-22T18:03:18;99731.91;;;8.62;97.41
49341;BME280;35209;51.050;13.678;2023-02-22T18:08:23;99730.69;;;8.44;98.20
49341;BME280;35209;51.050;13.678;2023-02-22T18:13:26;99734.88;;;8.50;98.65
49341;BME280;35209;51.050;13.678;2023-02-22T18:18:28;99723.47;;;8.52;97.63
49341;BME280;35209;51.050;13.678;2023-02-22T18:23:30;99722.88;;;8.43;97.48
49341;BME280;35209;51.050;13.678;2023-02-22T18:28:32;99717.81;;;8.35;97.10
49341;BME280;35209;51.050;13.678;2023-02-22T18:33:34;99726.91;;;8.22;98.11
49341;BME280;35209;51.050;13.678;2023-02-22T18:38:38;99713.47;;;8.34;95.74
49341;BME280;35209;51.050;13.678;2023-02-22T18:43:44;99716.47;;;8.20;96.10
49341;BME280;35209;51.050;13.678;2023-02-22T18:48:52;99713.03;;;8.18;95.08
49341;BME280;35209;51.050;13.678;2023-02-22T18:53:56;99712.38;;;8.10;95.23
49341;BME280;35209;51.050;13.678;2023-02-22T18:59:01;99703.91;;;8.00;94.80
49341;BME280;35209;51.050;13.678;2023-02-22T19:04:04;99700.84;;;7.84;96.27
49341;BME280;35209;51.050;13.678;2023-02-22T19:09:06;99707.00;;;7.82;96.07
49341;BME280;35209;51.050;13.678;2023-02-22T19:14:09;99705.66;;;7.67;96.11
49341;BME280;35209;51.050;13.678;2023-02-22T19:19:12;99699.78;;;7.92;94.50
49341;BME280;35209;51.050;13.678;2023-02-22T19:24:15;99700.13;;;7.79;95.11
49341;BME280;35209;51.050;13.678;2023-02-22T19:29:19;99687.88;;;7.80;95.55
49341;BME280;35209;51.050;13.678;2023-02-22T19:34:24;99687.72;;;7.86;93.79
49341;BME280;35209;51.050;13.678;2023-02-22T19:39:29;99697.13;;;7.59;95.16
49341;BME280;35209;51.050;13.678;2023-02-22T19:44:32;99682.81;;;7.74;94.32
49341;BME280;35209;51.050;13.678;2023-02-22T19:49:34;99691.97;;;7.57;95.15
49341;BME280;35209;51.050;13.678;2023-02-22T19:54:37;99681.75;;;7.47;95.91
49341;BME280;35209;51.050;13.678;2023-02-22T19:59:38;99675.59;;;7.49;96.01
49341;BME280;35209;51.050;13.678;2023-02-22T20:04:40;99679.19;;;7.45;95.75
49341;BME280;35209;51.050;13.678;2023-02-22T20:09:42;99687.13;;;7.41;95.72
49341;BME280;35209;51.050;13.678;2023-02-22T20:14:43;99683.66;;;7.40;95.58
49341;BME280;35209;51.050;13.678;2023-02-22T20:19:46;99680.63;;;7.21;95.92
49341;BME280;35209;51.050;13.678;2023-02-22T20:24:49;99685.94;;;7.52;95.30
49341;BME280;35209;51.050;13.678;2023-02-22T20:29:51;99683.94;;;7.28;95.92
49341;BME280;35209;51.050;13.678;2023-02-22T20:34:53;99679.50;;;6.94;97.63
49341;BME280;35209;51.050;13.678;2023-02-22T20:39:54;99679.22;;;7.06;97.75
49341;BME280;35209;51.050;13.678;2023-02-22T20:44:56;99671.31;;;7.10;97.69
49341;BME280;35209;51.050;13.678;2023-02-22T20:50:02;99671.31;;;7.10;97.47
49341;BME280;35209;51.050;13.678;2023-02-22T20:55:03;99669.84;;;7.35;95.76
49341;BME280;35209;51.050;13.678;2023-02-22T21:00:06;99663.88;;;7.28;96.08
49341;BME280;35209;51.050;13.678;2023-02-22T21:05:11;99671.28;;;7.11;97.01
49341;BME280;35209;51.050;13.678;2023-02-22T21:10:21;99672.56;;;6.93;97.83
49341;BME280;35209;51.050;13.678;2023-02-22T21:15:22;99668.94;;;7.00;97.72
49341;BME280;35209;51.050;13.678;2023-02-22T21:20:26;99657.75;;;6.94;98.18
49341;BME280;35209;51.050;13.678;2023-02-22T21:25:27;99673.03;;;6.72;99.08
49341;BME280;35209;51.050;13.678;2023-02-22T21:30:31;99661.88;;;6.65;99.75
49341;BME280;35209;51.050;13.678;2023-02-22T21:35:34;99656.41;;;6.76;98.24
49341;BME280;35209;51.050;13.678;2023-02-22T21:40:40;99654.13;;;6.61;99.31
49341;BME280;35209;51.050;13.678;2023-02-22T21:45:42;99649.53;;;6.72;100.00
49341;BME280;35209;51.050;13.678;2023-02-22T21:50:44;99642.78;;;6.62;100.00
49341;BME280;35209;51.050;13.678;2023-02-22T21:55:45;99643.50;;;6.70;99.60
49341;BME280;35209;51.050;13.678;2023-02-22T22:00:47;99643.13;;;6.46;100.00
49341;BME280;35209;51.050;13.678;2023-02-22T22:05:48;99641.59;;;6.36;100.00
49341;BME280;35209;51.050;13.678;2023-02-22T22:10:50;99642.59;;;6.30;100.00
49341;BME280;35209;51.050;13.678;2023-02-22T22:16:00;99636.56;;;6.27;100.00
49341;BME280;35209;51.050;13.678;2023-02-22T22:21:06;99640.06;;;6.26;100.00
49341;BME280;35209;51.050;13.678;2023-02-22T22:26:11;99629.59;;;6.27;100.00
49341;BME280;35209;51.050;13.678;2023-02-22T22:31:14;99638.22;;;6.31;100.00
49341;BME280;35209;51.050;13.678;2023-02-22T22:36:16;99630.91;;;6.06;100.00
49341;BME280;35209;51.050;13.678;2023-02-22T22:41:19;99640.06;;;6.26;100.00
49341;BME280;35209;51.050;13.678;2023-02-22T22:46:22;99642.94;;;6.14;100.00
49341;BME280;35209;51.050;13.678;2023-02-22T22:51:23;99639.69;;;6.02;100.00
49341;BME280;35209;51.050;13.678;2023-02-22T22:56:25;99637.22;;;5.95;100.00
49341;BME280;35209;51.050;13.678;2023-02-22T23:01:28;99639.78;;;5.98;100.00
49341;BME280;35209;51.050;13.678;2023-02-22T23:06:35;99649.13;;;6.08;100.00
49341;BME280;35209;51.050;13.678;2023-02-22T23:11:38;99641.34;;;6.05;100.00
49341;BME280;35209;51.050;13.678;2023-02-22T23:16:39;99642.19;;;6.07;100.00
49341;BME280;35209;51.050;13.678;2023-02-22T23:21:42;99648.09;;;6.15;100.00
49341;BME280;35209;51.050;13.678;2023-02-22T23:26:44;99645.59;;;6.11;100.00
49341;BME280;35209;51.050;13.678;2023-02-22T23:31:49;99651.16;;;5.92;100.00
49341;BME280;35209;51.050;13.678;2023-02-22T23:36:51;99647.03;;;5.79;100.00
49341;BME280;35209;51.050;13.678;2023-02-22T23:41:55;99655.88;;;5.72;100.00
49341;BME280;35209;51.050;13.678;2023-02-22T23:46:59;99642.66;;;5.81;100.00
49341;BME280;35209;51.050;13.678;2023-02-22T23:52:06;99641.19;;;5.66;100.00
49341;BME280;35209;51.050;13.678;2023-02-22T23:57:08;99637.06;;;5.54;100.00
